KTCM/TCM METAR and TAF weather

Enter ICAO airport designator
Station Type Date Time Source
KTCM METAR 2019/12/11 12:13 UTC NOAA

KTCM 111213Z 00000KT 10SM FEW006 SCT027 BKN034 OVC044 06/06 A3007 RMK AO2A SLP188 RVRNO $


Station Type Date Time Source
KTCM Decoded METAR 2019/12/11 12:13 UTC NOAA

Tacoma / McChord Air Force Base, WA, United States (KTCM) 47-09N 122-29W 87M
Dec 11, 2019 - 07:13 AM EST / 2019.12.11 1213 UTC
Wind: Calm:0
Visibility: 10 mile(s):0
Sky conditions: overcast
Temperature: 42 F (6 C)
Dew Point: 42 F (6 C)
Relative Humidity: 100%
Pressure (altimeter): 30.07 in. Hg (1018 hPa)
ob: KTCM 111213Z 00000KT 10SM FEW006 SCT027 BKN034 OVC044 06/06 A3007 RMK AO2A SLP188 RVRNO
cycle: 12

Station Type Date Time Source
KTCM TAF 2019/12/11 05:12 UTC NOAA

TAF KTCM 110500Z 1105/1211 20009KT 9999 VCSH BKN005 OVC015 610609 QNH3004INS
TEMPO 1105/1108 SCT005 OVC020
BECMG 1107/1108 VRB06KT 9999 NSW SCT005 OVC020 620509 QNH3000INS
BECMG 1115/1116 18009KT 9999 BKN015 OVC020 620509 QNH2997INS
BECMG 1119/1120 18012G18KT 9000 -RA BKN015 OVC040 620509 QNH2994INS
BECMG 1201/1202 19015G25KT 8000 -SHRA BKN020 610609 510009 QNH2987INS
TEMPO 1202/1209 19020G30KT 520009
BECMG 1208/1209 19012KT 9999 VCSH BKN012 OVC020 610409 QNH2983INS TX09/1121Z TN04/1115Z

Example: see airport list